sensor_id;sensor_type;location;lat;lon;timestamp;temperature;humidity
2453;DHT22;63678;47.994;7.854;2023-09-18T00:01:38;22.10;99.90
2453;DHT22;63678;47.994;7.854;2023-09-18T00:04:13;22.00;99.90
2453;DHT22;63678;47.994;7.854;2023-09-18T00:06:46;21.80;99.90
2453;DHT22;63678;47.994;7.854;2023-09-18T00:09:18;21.30;99.90
2453;DHT22;63678;47.994;7.854;2023-09-18T00:11:50;20.20;99.90
2453;DHT22;63678;47.994;7.854;2023-09-18T00:14:24;20.10;99.90
2453;DHT22;63678;47.994;7.854;2023-09-18T00:16:57;19.50;99.90
2453;DHT22;63678;47.994;7.854;2023-09-18T00:19:30;19.40;99.90
2453;DHT22;63678;47.994;7.854;2023-09-18T00:22:04;19.80;99.90
2453;DHT22;63678;47.994;7.854;2023-09-18T00:24:36;20.00;99.90
2453;DHT22;63678;47.994;7.854;2023-09-18T00:27:09;20.20;99.90
2453;DHT22;63678;47.994;7.854;2023-09-18T00:29:43;20.10;99.90
2453;DHT22;63678;47.994;7.854;2023-09-18T00:32:15;20.10;99.90
2453;DHT22;63678;47.994;7.854;2023-09-18T00:34:47;20.30;99.90
2453;DHT22;63678;47.994;7.854;2023-09-18T00:37:20;20.40;99.90
2453;DHT22;63678;47.994;7.854;2023-09-18T00:39:52;20.90;99.90
2453;DHT22;63678;47.994;7.854;2023-09-18T00:42:25;20.70;99.90
2453;DHT22;63678;47.994;7.854;2023-09-18T00:44:57;20.70;99.90
2453;DHT22;63678;47.994;7.854;2023-09-18T00:47:31;20.60;99.90
2453;DHT22;63678;47.994;7.854;2023-09-18T00:50:06;20.80;99.90
2453;DHT22;63678;47.994;7.854;2023-09-18T00:52:42;20.80;99.90
2453;DHT22;63678;47.994;7.854;2023-09-18T00:55:14;20.40;99.90
2453;DHT22;63678;47.994;7.854;2023-09-18T00:57:47;20.60;99.90
2453;DHT22;63678;47.994;7.854;2023-09-18T01:00:19;20.50;99.90
2453;DHT22;63678;47.994;7.854;2023-09-18T01:02:52;20.10;99.90
2453;DHT22;63678;47.994;7.854;2023-09-18T01:05:24;20.30;99.90
2453;DHT22;63678;47.994;7.854;2023-09-18T01:07:56;20.60;99.90
2453;DHT22;63678;47.994;7.854;2023-09-18T01:10:34;20.50;99.90
2453;DHT22;63678;47.994;7.854;2023-09-18T01:13:15;20.40;99.90
2453;DHT22;63678;47.994;7.854;2023-09-18T01:16:14;20.50;99.90
2453;DHT22;63678;47.994;7.854;2023-09-18T01:18:52;20.80;99.90
2453;DHT22;63678;47.994;7.854;2023-09-18T01:21:25;20.70;99.90
2453;DHT22;63678;47.994;7.854;2023-09-18T01:23:57;20.50;99.90
2453;DHT22;63678;47.994;7.854;2023-09-18T01:26:30;20.50;99.90
2453;DHT22;63678;47.994;7.854;2023-09-18T01:29:02;20.60;99.90
2453;DHT22;63678;47.994;7.854;2023-09-18T01:31:34;20.90;99.90
2453;DHT22;63678;47.994;7.854;2023-09-18T01:34:07;20.60;99.90
2453;DHT22;63678;47.994;7.854;2023-09-18T01:36:39;20.80;99.90
2453;DHT22;63678;47.994;7.854;2023-09-18T01:39:12;20.80;99.90
2453;DHT22;63678;47.994;7.854;2023-09-18T01:41:45;20.90;99.90
2453;DHT22;63678;47.994;7.854;2023-09-18T01:44:18;20.80;99.90
2453;DHT22;63678;47.994;7.854;2023-09-18T01:46:52;20.60;99.90
2453;DHT22;63678;47.994;7.854;2023-09-18T01:49:35;20.40;99.90
2453;DHT22;63678;47.994;7.854;2023-09-18T01:52:09;20.40;99.90
2453;DHT22;63678;47.994;7.854;2023-09-18T01:54:42;20.60;99.90
2453;DHT22;63678;47.994;7.854;2023-09-18T01:57:16;20.80;99.90
2453;DHT22;63678;47.994;7.854;2023-09-18T01:59:48;20.80;99.90
2453;DHT22;63678;47.994;7.854;2023-09-18T02:02:21;20.70;99.90
2453;DHT22;63678;47.994;7.854;2023-09-18T02:05:01;20.70;99.90
2453;DHT22;63678;47.994;7.854;2023-09-18T02:07:40;20.50;99.90
2453;DHT22;63678;47.994;7.854;2023-09-18T02:10:13;20.30;99.90
2453;DHT22;63678;47.994;7.854;2023-09-18T02:12:45;20.30;99.90
2453;DHT22;63678;47.994;7.854;2023-09-18T02:15:18;20.00;99.90
2453;DHT22;63678;47.994;7.854;2023-09-18T02:18:12;20.40;99.90
2453;DHT22;63678;47.994;7.854;2023-09-18T02:20:44;20.40;99.90
2453;DHT22;63678;47.994;7.854;2023-09-18T02:23:19;20.60;99.90
2453;DHT22;63678;47.994;7.854;2023-09-18T02:25:58;20.50;99.90
2453;DHT22;63678;47.994;7.854;2023-09-18T02:28:31;20.60;99.90
2453;DHT22;63678;47.994;7.854;2023-09-18T02:31:03;20.80;99.90
2453;DHT22;63678;47.994;7.854;2023-09-18T02:33:37;20.60;99.90
2453;DHT22;63678;47.994;7.854;2023-09-18T02:36:11;20.40;99.90
2453;DHT22;63678;47.994;7.854;2023-09-18T02:38:43;20.40;99.90
2453;DHT22;63678;47.994;7.854;2023-09-18T02:41:15;20.10;99.90
2453;DHT22;63678;47.994;7.854;2023-09-18T02:43:48;20.00;99.90
2453;DHT22;63678;47.994;7.854;2023-09-18T02:46:21;19.90;99.90
2453;DHT22;63678;47.994;7.854;2023-09-18T02:48:53;19.90;99.90
2453;DHT22;63678;47.994;7.854;2023-09-18T02:51:26;19.80;99.90
2453;DHT22;63678;47.994;7.854;2023-09-18T02:53:59;19.80;99.90
2453;DHT22;63678;47.994;7.854;2023-09-18T02:56:31;19.70;99.90
2453;DHT22;63678;47.994;7.854;2023-09-18T02:59:04;19.60;99.90
2453;DHT22;63678;47.994;7.854;2023-09-18T03:01:37;19.50;99.90
2453;DHT22;63678;47.994;7.854;2023-09-18T03:04:10;19.40;99.90
2453;DHT22;63678;47.994;7.854;2023-09-18T03:06:42;19.40;99.90
2453;DHT22;63678;47.994;7.854;2023-09-18T03:09:15;19.40;99.90
2453;DHT22;63678;47.994;7.854;2023-09-18T03:11:49;19.30;99.90
2453;DHT22;63678;47.994;7.854;2023-09-18T03:14:21;19.40;99.90
2453;DHT22;63678;47.994;7.854;2023-09-18T03:16:54;19.60;99.90
2453;DHT22;63678;47.994;7.854;2023-09-18T03:19:26;19.40;99.90
2453;DHT22;63678;47.994;7.854;2023-09-18T03:21:59;19.00;99.90
2453;DHT22;63678;47.994;7.854;2023-09-18T03:24:31;19.00;99.90
2453;DHT22;63678;47.994;7.854;2023-09-18T03:27:04;19.00;99.90
2453;DHT22;63678;47.994;7.854;2023-09-18T03:29:38;18.80;99.90
2453;DHT22;63678;47.994;7.854;2023-09-18T03:32:29;19.00;99.90
2453;DHT22;63678;47.994;7.854;2023-09-18T03:35:02;19.00;99.90
2453;DHT22;63678;47.994;7.854;2023-09-18T03:37:35;19.00;99.90
2453;DHT22;63678;47.994;7.854;2023-09-18T03:40:09;19.10;99.90
2453;DHT22;63678;47.994;7.854;2023-09-18T03:43:03;18.90;99.90
2453;DHT22;63678;47.994;7.854;2023-09-18T03:45:36;18.80;99.90
2453;DHT22;63678;47.994;7.854;2023-09-18T03:48:09;18.70;99.90
2453;DHT22;63678;47.994;7.854;2023-09-18T03:50:43;18.60;99.90
2453;DHT22;63678;47.994;7.854;2023-09-18T03:53:15;18.60;99.90
2453;DHT22;63678;47.994;7.854;2023-09-18T03:55:48;18.60;99.90
2453;DHT22;63678;47.994;7.854;2023-09-18T04:00:54;18.50;99.90
2453;DHT22;63678;47.994;7.854;2023-09-18T04:03:26;18.60;99.90
2453;DHT22;63678;47.994;7.854;2023-09-18T04:05:59;18.70;99.90
2453;DHT22;63678;47.994;7.854;2023-09-18T04:11:26;18.70;99.90
2453;DHT22;63678;47.994;7.854;2023-09-18T04:14:01;18.90;99.90
2453;DHT22;63678;47.994;7.854;2023-09-18T04:16:34;18.80;99.90
2453;DHT22;63678;47.994;7.854;2023-09-18T04:19:08;18.80;99.90
2453;DHT22;63678;47.994;7.854;2023-09-18T04:21:42;18.60;99.90
2453;DHT22;63678;47.994;7.854;2023-09-18T04:24:14;18.70;99.90
2453;DHT22;63678;47.994;7.854;2023-09-18T04:26:48;18.80;99.90
2453;DHT22;63678;47.994;7.854;2023-09-18T04:29:23;18.90;99.90
2453;DHT22;63678;47.994;7.854;2023-09-18T04:31:55;18.90;99.90
2453;DHT22;63678;47.994;7.854;2023-09-18T04:34:29;19.10;99.90
2453;DHT22;63678;47.994;7.854;2023-09-18T04:37:03;19.00;99.90
2453;DHT22;63678;47.994;7.854;2023-09-18T04:42:09;18.90;99.90
2453;DHT22;63678;47.994;7.854;2023-09-18T04:44:41;18.90;99.90
2453;DHT22;63678;47.994;7.854;2023-09-18T04:47:14;18.80;99.90
2453;DHT22;63678;47.994;7.854;2023-09-18T04:52:21;18.60;99.90
2453;DHT22;63678;47.994;7.854;2023-09-18T04:54:54;18.50;99.90
2453;DHT22;63678;47.994;7.854;2023-09-18T04:57:27;18.50;99.90
2453;DHT22;63678;47.994;7.854;2023-09-18T05:00:00;18.60;99.90
2453;DHT22;63678;47.994;7.854;2023-09-18T05:02:48;18.70;99.90
2453;DHT22;63678;47.994;7.854;2023-09-18T05:05:21;18.60;99.90
2453;DHT22;63678;47.994;7.854;2023-09-18T05:07:54;18.80;99.90
2453;DHT22;63678;47.994;7.854;2023-09-18T05:10:27;20.10;99.90
2453;DHT22;63678;47.994;7.854;2023-09-18T05:13:00;19.00;99.90
2453;DHT22;63678;47.994;7.854;2023-09-18T05:15:33;19.20;99.90
2453;DHT22;63678;47.994;7.854;2023-09-18T05:20:40;19.30;99.90
2453;DHT22;63678;47.994;7.854;2023-09-18T05:23:14;19.10;99.90
2453;DHT22;63678;47.994;7.854;2023-09-18T05:25:50;19.30;99.90
2453;DHT22;63678;47.994;7.854;2023-09-18T05:28:23;20.40;99.90
2453;DHT22;63678;47.994;7.854;2023-09-18T05:30:58;19.60;99.90
2453;DHT22;63678;47.994;7.854;2023-09-18T05:33:31;19.60;99.90
2453;DHT22;63678;47.994;7.854;2023-09-18T05:36:03;19.50;99.90
2453;DHT22;63678;47.994;7.854;2023-09-18T05:38:36;19.20;99.90
2453;DHT22;63678;47.994;7.854;2023-09-18T05:41:09;18.90;99.90
2453;DHT22;63678;47.994;7.854;2023-09-18T05:44:03;18.70;99.90
2453;DHT22;63678;47.994;7.854;2023-09-18T05:46:37;18.60;99.90
2453;DHT22;63678;47.994;7.854;2023-09-18T05:49:32;18.60;99.90
2453;DHT22;63678;47.994;7.854;2023-09-18T05:52:05;18.50;99.90
2453;DHT22;63678;47.994;7.854;2023-09-18T05:54:37;18.60;99.90
2453;DHT22;63678;47.994;7.854;2023-09-18T05:57:10;18.60;99.90
2453;DHT22;63678;47.994;7.854;2023-09-18T05:59:42;19.30;99.90
2453;DHT22;63678;47.994;7.854;2023-09-18T06:02:17;19.60;99.90
2453;DHT22;63678;47.994;7.854;2023-09-18T06:04:53;19.50;99.90
2453;DHT22;63678;47.994;7.854;2023-09-18T06:07:30;19.60;99.90
2453;DHT22;63678;47.994;7.854;2023-09-18T06:10:03;19.60;99.90
2453;DHT22;63678;47.994;7.854;2023-09-18T06:12:38;19.60;99.90
2453;DHT22;63678;47.994;7.854;2023-09-18T06:15:12;19.50;99.90
2453;DHT22;63678;47.994;7.854;2023-09-18T06:17:45;19.50;99.90
2453;DHT22;63678;47.994;7.854;2023-09-18T06:20:17;19.60;99.90
2453;DHT22;63678;47.994;7.854;2023-09-18T06:22:50;19.50;99.90
2453;DHT22;63678;47.994;7.854;2023-09-18T06:25:22;19.10;99.90
2453;DHT22;63678;47.994;7.854;2023-09-18T06:27:55;19.00;99.90
2453;DHT22;63678;47.994;7.854;2023-09-18T06:30:29;19.10;99.90
2453;DHT22;63678;47.994;7.854;2023-09-18T06:33:03;19.00;99.90
2453;DHT22;63678;47.994;7.854;2023-09-18T06:38:12;19.10;99.90
2453;DHT22;63678;47.994;7.854;2023-09-18T06:40:45;18.90;99.90
2453;DHT22;63678;47.994;7.854;2023-09-18T06:43:17;18.70;99.90
2453;DHT22;63678;47.994;7.854;2023-09-18T06:45:49;18.70;99.90
2453;DHT22;63678;47.994;7.854;2023-09-18T06:48:22;18.90;99.90
2453;DHT22;63678;47.994;7.854;2023-09-18T06:50:54;18.90;99.90
2453;DHT22;63678;47.994;7.854;2023-09-18T06:53:28;18.80;99.90
2453;DHT22;63678;47.994;7.854;2023-09-18T06:56:01;18.60;99.90
2453;DHT22;63678;47.994;7.854;2023-09-18T06:58:33;18.50;99.90
2453;DHT22;63678;47.994;7.854;2023-09-18T07:06:14;18.60;99.90
2453;DHT22;63678;47.994;7.854;2023-09-18T07:08:54;18.50;99.90
2453;DHT22;63678;47.994;7.854;2023-09-18T07:11:27;18.60;99.90
2453;DHT22;63678;47.994;7.854;2023-09-18T07:16:32;18.50;99.90
2453;DHT22;63678;47.994;7.854;2023-09-18T07:19:05;18.60;99.90
2453;DHT22;63678;47.994;7.854;2023-09-18T07:21:38;18.40;99.90
2453;DHT22;63678;47.994;7.854;2023-09-18T07:24:13;18.50;99.90
2453;DHT22;63678;47.994;7.854;2023-09-18T07:26:48;18.50;99.90
2453;DHT22;63678;47.994;7.854;2023-09-18T07:29:21;18.30;99.90
2453;DHT22;63678;47.994;7.854;2023-09-18T07:34:26;18.50;99.90
2453;DHT22;63678;47.994;7.854;2023-09-18T07:42:26;18.50;99.90
2453;DHT22;63678;47.994;7.854;2023-09-18T07:44:59;18.60;99.90
2453;DHT22;63678;47.994;7.854;2023-09-18T07:50:23;18.70;99.90
2453;DHT22;63678;47.994;7.854;2023-09-18T07:52:56;18.60;99.90
2453;DHT22;63678;47.994;7.854;2023-09-18T07:55:29;18.60;99.90
2453;DHT22;63678;47.994;7.854;2023-09-18T07:58:02;18.50;99.90
2453;DHT22;63678;47.994;7.854;2023-09-18T08:00:35;18.40;99.90
2453;DHT22;63678;47.994;7.854;2023-09-18T08:03:07;18.40;99.90
2453;DHT22;63678;47.994;7.854;2023-09-18T08:05:40;18.40;99.90
2453;DHT22;63678;47.994;7.854;2023-09-18T08:08:12;18.50;99.90
2453;DHT22;63678;47.994;7.854;2023-09-18T08:11:08;18.50;99.90
2453;DHT22;63678;47.994;7.854;2023-09-18T08:13:41;18.50;99.90
2453;DHT22;63678;47.994;7.854;2023-09-18T08:16:14;18.60;99.90
2453;DHT22;63678;47.994;7.854;2023-09-18T08:18:46;18.60;99.90
2453;DHT22;63678;47.994;7.854;2023-09-18T08:21:19;18.70;99.90
2453;DHT22;63678;47.994;7.854;2023-09-18T08:24:15;18.70;99.90
2453;DHT22;63678;47.994;7.854;2023-09-18T08:26:48;18.70;99.90
2453;DHT22;63678;47.994;7.854;2023-09-18T08:29:22;18.60;99.90
2453;DHT22;63678;47.994;7.854;2023-09-18T08:31:55;18.50;99.90
2453;DHT22;63678;47.994;7.854;2023-09-18T08:34:28;18.60;99.90
2453;DHT22;63678;47.994;7.854;2023-09-18T08:37:02;18.60;99.90
2453;DHT22;63678;47.994;7.854;2023-09-18T08:42:10;18.60;99.90
2453;DHT22;63678;47.994;7.854;2023-09-18T08:44:44;18.60;99.90
2453;DHT22;63678;47.994;7.854;2023-09-18T08:50:16;18.50;99.90
2453;DHT22;63678;47.994;7.854;2023-09-18T08:52:49;18.60;99.90
2453;DHT22;63678;47.994;7.854;2023-09-18T08:55:23;18.90;99.90
2453;DHT22;63678;47.994;7.854;2023-09-18T08:57:58;19.00;99.90
2453;DHT22;63678;47.994;7.854;2023-09-18T09:00:37;19.10;99.90
2453;DHT22;63678;47.994;7.854;2023-09-18T09:03:09;19.00;99.90
2453;DHT22;63678;47.994;7.854;2023-09-18T09:05:42;18.90;99.90
2453;DHT22;63678;47.994;7.854;2023-09-18T09:08:16;18.70;99.90
2453;DHT22;63678;47.994;7.854;2023-09-18T09:13:22;19.20;99.90
2453;DHT22;63678;47.994;7.854;2023-09-18T09:16:13;18.90;99.90
2453;DHT22;63678;47.994;7.854;2023-09-18T09:18:50;19.00;99.90
2453;DHT22;63678;47.994;7.854;2023-09-18T09:21:38;18.80;99.90
2453;DHT22;63678;47.994;7.854;2023-09-18T09:24:12;18.80;99.90
2453;DHT22;63678;47.994;7.854;2023-09-18T09:26:57;18.70;99.90
2453;DHT22;63678;47.994;7.854;2023-09-18T09:29:31;18.80;99.90
2453;DHT22;63678;47.994;7.854;2023-09-18T09:34:49;18.70;99.90
2453;DHT22;63678;47.994;7.854;2023-09-18T09:37:29;18.80;99.90
2453;DHT22;63678;47.994;7.854;2023-09-18T09:40:04;18.70;99.90
2453;DHT22;63678;47.994;7.854;2023-09-18T09:42:40;18.80;99.90
2453;DHT22;63678;47.994;7.854;2023-09-18T09:45:15;18.70;99.90
2453;DHT22;63678;47.994;7.854;2023-09-18T09:47:54;18.70;99.90
2453;DHT22;63678;47.994;7.854;2023-09-18T09:50:26;18.70;99.90
2453;DHT22;63678;47.994;7.854;2023-09-18T09:53:00;18.80;99.90
2453;DHT22;63678;47.994;7.854;2023-09-18T09:55:33;18.80;99.90
2453;DHT22;63678;47.994;7.854;2023-09-18T09:58:08;18.90;99.90
2453;DHT22;63678;47.994;7.854;2023-09-18T10:00:46;18.90;99.90
2453;DHT22;63678;47.994;7.854;2023-09-18T10:03:24;19.00;99.90
2453;DHT22;63678;47.994;7.854;2023-09-18T10:05:58;19.10;99.90
2453;DHT22;63678;47.994;7.854;2023-09-18T10:08:31;19.00;99.90
2453;DHT22;63678;47.994;7.854;2023-09-18T10:11:07;19.10;99.90
2453;DHT22;63678;47.994;7.854;2023-09-18T10:13:47;19.20;99.90
2453;DHT22;63678;47.994;7.854;2023-09-18T10:16:31;19.40;99.90
2453;DHT22;63678;47.994;7.854;2023-09-18T10:22:31;20.10;99.90
2453;DHT22;63678;47.994;7.854;2023-09-18T10:25:21;20.20;99.90
2453;DHT22;63678;47.994;7.854;2023-09-18T10:28:00;20.30;99.90
2453;DHT22;63678;47.994;7.854;2023-09-18T10:30:35;20.10;99.90
2453;DHT22;63678;47.994;7.854;2023-09-18T10:33:10;20.50;99.90
2453;DHT22;63678;47.994;7.854;2023-09-18T10:35:43;20.70;99.90
2453;DHT22;63678;47.994;7.854;2023-09-18T10:38:18;20.60;99.90
2453;DHT22;63678;47.994;7.854;2023-09-18T10:40:56;20.60;99.90
2453;DHT22;63678;47.994;7.854;2023-09-18T10:43:30;20.80;99.90
2453;DHT22;63678;47.994;7.854;2023-09-18T10:46:03;20.70;99.90
2453;DHT22;63678;47.994;7.854;2023-09-18T10:48:36;20.90;99.90
2453;DHT22;63678;47.994;7.854;2023-09-18T10:51:12;21.40;99.90
2453;DHT22;63678;47.994;7.854;2023-09-18T10:53:47;21.30;99.90
2453;DHT22;63678;47.994;7.854;2023-09-18T10:56:20;21.50;99.90
2453;DHT22;63678;47.994;7.854;2023-09-18T10:59:00;21.00;99.90
2453;DHT22;63678;47.994;7.854;2023-09-18T11:01:36;21.20;99.90
2453;DHT22;63678;47.994;7.854;2023-09-18T11:04:09;21.10;99.90
2453;DHT22;63678;47.994;7.854;2023-09-18T11:09:32;21.00;99.90
2453;DHT22;63678;47.994;7.854;2023-09-18T11:12:17;21.10;99.90
2453;DHT22;63678;47.994;7.854;2023-09-18T11:14:57;21.30;99.90
2453;DHT22;63678;47.994;7.854;2023-09-18T11:17:35;21.10;99.90
2453;DHT22;63678;47.994;7.854;2023-09-18T11:25:43;21.30;99.90
2453;DHT22;63678;47.994;7.854;2023-09-18T11:28:25;21.30;99.90
2453;DHT22;63678;47.994;7.854;2023-09-18T11:30:58;21.30;99.90
2453;DHT22;63678;47.994;7.854;2023-09-18T11:36:14;21.80;99.90
2453;DHT22;63678;47.994;7.854;2023-09-18T11:39:05;22.10;99.90
2453;DHT22;63678;47.994;7.854;2023-09-18T11:41:38;22.30;99.90
2453;DHT22;63678;47.994;7.854;2023-09-18T11:46:51;24.50;99.90
2453;DHT22;63678;47.994;7.854;2023-09-18T11:49:25;22.50;99.90
2453;DHT22;63678;47.994;7.854;2023-09-18T11:51:59;22.50;99.90
2453;DHT22;63678;47.994;7.854;2023-09-18T11:54:32;22.30;99.90
2453;DHT22;63678;47.994;7.854;2023-09-18T11:57:07;22.20;99.90
2453;DHT22;63678;47.994;7.854;2023-09-18T11:59:43;22.40;99.90
2453;DHT22;63678;47.994;7.854;2023-09-18T12:02:28;22.40;99.90
2453;DHT22;63678;47.994;7.854;2023-09-18T12:05:15;22.60;99.90
2453;DHT22;63678;47.994;7.854;2023-09-18T12:07:48;22.60;99.90
2453;DHT22;63678;47.994;7.854;2023-09-18T12:10:23;22.50;99.90
2453;DHT22;63678;47.994;7.854;2023-09-18T12:12:55;22.50;99.90
2453;DHT22;63678;47.994;7.854;2023-09-18T12:15:28;22.70;99.90
2453;DHT22;63678;47.994;7.854;2023-09-18T12:18:06;22.80;99.90
2453;DHT22;63678;47.994;7.854;2023-09-18T12:20:47;22.80;99.90
2453;DHT22;63678;47.994;7.854;2023-09-18T12:26:00;22.90;99.90
2453;DHT22;63678;47.994;7.854;2023-09-18T12:28:37;22.80;99.90
2453;DHT22;63678;47.994;7.854;2023-09-18T12:31:10;22.30;99.90
2453;DHT22;63678;47.994;7.854;2023-09-18T12:33:46;22.30;99.90
2453;DHT22;63678;47.994;7.854;2023-09-18T12:36:20;22.60;99.90
2453;DHT22;63678;47.994;7.854;2023-09-18T12:38:57;22.70;99.90
2453;DHT22;63678;47.994;7.854;2023-09-18T12:41:31;22.90;99.90
2453;DHT22;63678;47.994;7.854;2023-09-18T12:44:05;23.20;99.90
2453;DHT22;63678;47.994;7.854;2023-09-18T12:46:39;23.40;99.90
2453;DHT22;63678;47.994;7.854;2023-09-18T12:51:57;23.90;99.90
2453;DHT22;63678;47.994;7.854;2023-09-18T12:54:38;24.00;99.90
2453;DHT22;63678;47.994;7.854;2023-09-18T12:57:15;24.10;99.90
2453;DHT22;63678;47.994;7.854;2023-09-18T12:59:49;23.90;99.90
2453;DHT22;63678;47.994;7.854;2023-09-18T13:02:46;23.70;99.90
2453;DHT22;63678;47.994;7.854;2023-09-18T13:05:24;23.60;99.90
2453;DHT22;63678;47.994;7.854;2023-09-18T13:08:05;23.60;99.90
2453;DHT22;63678;47.994;7.854;2023-09-18T13:10:47;23.70;99.90
2453;DHT22;63678;47.994;7.854;2023-09-18T13:13:23;23.80;99.90
2453;DHT22;63678;47.994;7.854;2023-09-18T13:15:58;23.70;99.90
2453;DHT22;63678;47.994;7.854;2023-09-18T13:21:13;23.50;99.90
2453;DHT22;63678;47.994;7.854;2023-09-18T13:23:48;23.60;99.90
2453;DHT22;63678;47.994;7.854;2023-09-18T13:26:21;23.60;99.90
2453;DHT22;63678;47.994;7.854;2023-09-18T13:31:26;23.50;99.90
2453;DHT22;63678;47.994;7.854;2023-09-18T13:33:58;23.50;99.90
2453;DHT22;63678;47.994;7.854;2023-09-18T13:36:30;23.60;99.90
2453;DHT22;63678;47.994;7.854;2023-09-18T13:39:03;23.60;99.90
2453;DHT22;63678;47.994;7.854;2023-09-18T13:41:36;23.60;99.90
2453;DHT22;63678;47.994;7.854;2023-09-18T13:46:41;23.50;99.90
2453;DHT22;63678;47.994;7.854;2023-09-18T13:49:14;23.60;99.90
2453;DHT22;63678;47.994;7.854;2023-09-18T13:54:38;23.70;99.90
2453;DHT22;63678;47.994;7.854;2023-09-18T13:57:10;23.70;99.90
2453;DHT22;63678;47.994;7.854;2023-09-18T13:59:42;23.60;99.90
2453;DHT22;63678;47.994;7.854;2023-09-18T14:02:16;23.60;99.90
2453;DHT22;63678;47.994;7.854;2023-09-18T14:12:31;23.60;99.90
2453;DHT22;63678;47.994;7.854;2023-09-18T14:15:08;23.60;99.90
2453;DHT22;63678;47.994;7.854;2023-09-18T14:17:41;23.50;99.90
2453;DHT22;63678;47.994;7.854;2023-09-18T14:20:14;23.50;99.90
2453;DHT22;63678;47.994;7.854;2023-09-18T14:27:57;23.90;99.90
2453;DHT22;63678;47.994;7.854;2023-09-18T14:35:37;24.20;99.90
2453;DHT22;63678;47.994;7.854;2023-09-18T14:38:12;24.10;99.90
2453;DHT22;63678;47.994;7.854;2023-09-18T14:45:54;23.90;99.90
2453;DHT22;63678;47.994;7.854;2023-09-18T14:51:02;24.00;99.90
2453;DHT22;63678;47.994;7.854;2023-09-18T14:58:45;23.90;99.90
2453;DHT22;63678;47.994;7.854;2023-09-18T15:01:21;23.90;99.90
2453;DHT22;63678;47.994;7.854;2023-09-18T15:03:54;23.90;99.90
2453;DHT22;63678;47.994;7.854;2023-09-18T15:06:28;23.90;99.90
2453;DHT22;63678;47.994;7.854;2023-09-18T15:09:01;24.00;99.90
2453;DHT22;63678;47.994;7.854;2023-09-18T15:11:35;24.00;99.90
2453;DHT22;63678;47.994;7.854;2023-09-18T15:16:41;24.00;99.90
2453;DHT22;63678;47.994;7.854;2023-09-18T15:21:51;24.00;99.90
2453;DHT22;63678;47.994;7.854;2023-09-18T15:24:27;23.80;99.90
2453;DHT22;63678;47.994;7.854;2023-09-18T15:26:59;23.80;99.90
2453;DHT22;63678;47.994;7.854;2023-09-18T15:29:32;23.80;99.90
2453;DHT22;63678;47.994;7.854;2023-09-18T15:34:40;23.70;99.90
2453;DHT22;63678;47.994;7.854;2023-09-18T15:37:12;23.50;99.90
2453;DHT22;63678;47.994;7.854;2023-09-18T15:39:45;23.50;99.90
2453;DHT22;63678;47.994;7.854;2023-09-18T15:42:18;23.50;99.90
2453;DHT22;63678;47.994;7.854;2023-09-18T15:44:51;23.20;99.90
2453;DHT22;63678;47.994;7.854;2023-09-18T15:47:24;23.10;99.90
2453;DHT22;63678;47.994;7.854;2023-09-18T15:52:29;22.80;99.90
2453;DHT22;63678;47.994;7.854;2023-09-18T15:55:03;22.60;99.90
2453;DHT22;63678;47.994;7.854;2023-09-18T15:57:38;22.90;99.90
2453;DHT22;63678;47.994;7.854;2023-09-18T16:00:12;22.80;99.90
2453;DHT22;63678;47.994;7.854;2023-09-18T16:02:45;22.90;99.90
2453;DHT22;63678;47.994;7.854;2023-09-18T16:05:18;22.90;99.90
2453;DHT22;63678;47.994;7.854;2023-09-18T16:10:36;23.00;99.90
2453;DHT22;63678;47.994;7.854;2023-09-18T16:13:09;23.00;99.90
2453;DHT22;63678;47.994;7.854;2023-09-18T16:18:17;23.10;99.90
2453;DHT22;63678;47.994;7.854;2023-09-18T16:20:50;22.90;99.90
2453;DHT22;63678;47.994;7.854;2023-09-18T16:23:24;22.90;99.90
2453;DHT22;63678;47.994;7.854;2023-09-18T16:25:56;22.70;99.90
2453;DHT22;63678;47.994;7.854;2023-09-18T16:28:29;22.30;99.90
2453;DHT22;63678;47.994;7.854;2023-09-18T16:31:01;22.50;99.90
2453;DHT22;63678;47.994;7.854;2023-09-18T16:33:37;22.40;99.90
2453;DHT22;63678;47.994;7.854;2023-09-18T16:36:10;22.70;99.90
2453;DHT22;63678;47.994;7.854;2023-09-18T16:38:42;22.70;99.90
2453;DHT22;63678;47.994;7.854;2023-09-18T16:46:43;22.60;99.90
2453;DHT22;63678;47.994;7.854;2023-09-18T16:49:15;22.60;99.90
2453;DHT22;63678;47.994;7.854;2023-09-18T16:54:27;22.40;99.90
2453;DHT22;63678;47.994;7.854;2023-09-18T16:56:59;22.40;99.90
2453;DHT22;63678;47.994;7.854;2023-09-18T17:02:05;22.30;99.90
2453;DHT22;63678;47.994;7.854;2023-09-18T17:07:25;22.10;99.90
2453;DHT22;63678;47.994;7.854;2023-09-18T17:10:00;22.00;99.90
2453;DHT22;63678;47.994;7.854;2023-09-18T17:12:32;22.10;99.90
2453;DHT22;63678;47.994;7.854;2023-09-18T17:15:09;22.20;99.90
2453;DHT22;63678;47.994;7.854;2023-09-18T17:17:42;22.00;99.90
2453;DHT22;63678;47.994;7.854;2023-09-18T17:22:48;21.50;99.90
2453;DHT22;63678;47.994;7.854;2023-09-18T17:25:21;21.70;99.90
2453;DHT22;63678;47.994;7.854;2023-09-18T17:33:22;21.60;99.90
2453;DHT22;63678;47.994;7.854;2023-09-18T17:35:57;21.70;99.90
2453;DHT22;63678;47.994;7.854;2023-09-18T17:38:29;21.70;99.90
2453;DHT22;63678;47.994;7.854;2023-09-18T17:41:02;21.70;99.90
2453;DHT22;63678;47.994;7.854;2023-09-18T17:43:37;21.80;99.90
2453;DHT22;63678;47.994;7.854;2023-09-18T17:46:09;21.80;99.90
2453;DHT22;63678;47.994;7.854;2023-09-18T17:48:45;21.80;99.90
2453;DHT22;63678;47.994;7.854;2023-09-18T17:58:57;21.30;99.90
2453;DHT22;63678;47.994;7.854;2023-09-18T18:01:29;21.20;99.90
2453;DHT22;63678;47.994;7.854;2023-09-18T18:04:02;21.30;99.90
2453;DHT22;63678;47.994;7.854;2023-09-18T18:09:09;21.10;99.90
2453;DHT22;63678;47.994;7.854;2023-09-18T18:14:18;21.30;99.90
2453;DHT22;63678;47.994;7.854;2023-09-18T18:16:50;21.20;99.90
2453;DHT22;63678;47.994;7.854;2023-09-18T18:19:47;21.30;99.90
2453;DHT22;63678;47.994;7.854;2023-09-18T18:22:19;21.10;99.90
2453;DHT22;63678;47.994;7.854;2023-09-18T18:24:52;21.10;99.90
2453;DHT22;63678;47.994;7.854;2023-09-18T18:27:25;21.00;99.90
2453;DHT22;63678;47.994;7.854;2023-09-18T18:29:57;21.00;99.90
2453;DHT22;63678;47.994;7.854;2023-09-18T18:32:30;20.90;99.90
2453;DHT22;63678;47.994;7.854;2023-09-18T18:35:03;20.90;99.90
2453;DHT22;63678;47.994;7.854;2023-09-18T18:37:35;20.80;99.90
2453;DHT22;63678;47.994;7.854;2023-09-18T18:40:08;20.80;99.90
2453;DHT22;63678;47.994;7.854;2023-09-18T18:42:42;20.70;99.90
2453;DHT22;63678;47.994;7.854;2023-09-18T18:45:15;20.50;99.90
2453;DHT22;63678;47.994;7.854;2023-09-18T18:50:21;19.70;99.90
2453;DHT22;63678;47.994;7.854;2023-09-18T18:52:54;18.50;99.90
2453;DHT22;63678;47.994;7.854;2023-09-18T19:00:33;17.90;99.90
2453;DHT22;63678;47.994;7.854;2023-09-18T19:03:05;18.00;99.90
2453;DHT22;63678;47.994;7.854;2023-09-18T19:05:40;18.10;99.90
2453;DHT22;63678;47.994;7.854;2023-09-18T19:10:46;18.00;99.90
2453;DHT22;63678;47.994;7.854;2023-09-18T19:13:18;18.00;99.90
2453;DHT22;63678;47.994;7.854;2023-09-18T19:18:23;17.90;99.90
2453;DHT22;63678;47.994;7.854;2023-09-18T19:20:58;18.00;99.90
2453;DHT22;63678;47.994;7.854;2023-09-18T19:23:31;18.00;99.90